Terminal Aerodrome Forecast
Issued by NWS Charleston, WV

Current Version | Previous Version | Graphics & Text | Print | Product List | Glossary On
Versions: 1 2 3 4 5 6 7 8 9 10 11 12 13 14 15 16 17 18 19 20 21 22 23
731
FTUS41 KRLX 172126 AAA
TAFHTS
TAF AMD
KHTS 172126Z 1721/1818 20009KT P6SM SCT035
     FM180400 21004KT 5SM -SHRA VCTS BKN025CB
     FM180800 22004KT P6SM OVC010
     FM181400 24005KT P6SM SCT100=

USA.gov is the U.S. government's official web portal to all federal, state and local government web resources and services.